Ah Gwah Ching, Minnesota
Current Conditions -  °F | °C
As of 12:15 PM on Monday 26 Jan 2015 (Local Time) from KY49 Reporting Station
Overcast Overcast  
Wind Chill: 28°   Ceiling: 1800
Heat Index: 37°   Visibility: 10mi
Dew Point: 30°   Wind: 13mph
Humidity: 78%   Direction: 300°WNW
Pressure: 29.69"   Gusts: 22mph
Location:  47.08°N, 94.57°W
Report Text: KY49 261815Z AUTO 30011G19KT 270V330 10SM OVC018 03/M01 A2969 RMK AO2 T00251010
Loading
Personal Weather Stations






























Interactive Weather Map New forecast layout! Learn more

10-Day Weather Forecast

Advertisements
Track Severe Weather on mobile